Time;durP1;ratioP1;P1;durP2;ratioP2;P2;SDS_P1;SDS_P2;PMS_P1;PMS_P2;Temp;Humidity;BMP_temperature;BMP_pressure;BME280_temperature;BME280_humidity;BME280_pressure;Samples;Min_cycle;Max_cycle;Signal;HPM_P1;HPM_P2
2023/04/25 00:01:51;;;;;;;24.43;14.40;;;;;;;11.26;75.51;98925.34;4222575;28;20849;-71
2023/04/25 00:04:17;;;;;;;21.47;13.70;;;;;;;11.22;75.42;98924.91;4221513;28;20697;-68
2023/04/25 00:06:44;;;;;;;23.17;14.23;;;;;;;11.26;75.54;98928.88;4216978;28;20234;-69
2023/04/25 00:09:11;;;;;;;22.00;14.43;;;;;;;11.51;75.09;98934.00;4223541;28;20383;-69
2023/04/25 00:11:38;;;;;;;22.37;14.17;;;;;;;11.54;75.10;98932.75;4207754;28;20647;-71
2023/04/25 00:14:04;;;;;;;22.93;14.57;;;;;;;11.50;75.08;98923.34;4225799;28;20227;-69
2023/04/25 00:16:33;;;;;;;22.57;15.23;;;;;;;11.32;75.91;98926.47;4224086;28;20250;-68
2023/04/25 00:19:03;;;;;;;27.60;15.10;;;;;;;11.17;76.79;98926.47;4218863;28;20405;-68
2023/04/25 00:21:31;;;;;;;21.80;15.07;;;;;;;11.10;77.52;98921.00;4213158;28;20238;-71
2023/04/25 00:23:58;;;;;;;25.43;15.47;;;;;;;11.07;77.73;98922.19;4215673;28;20662;-67
2023/04/25 00:26:25;;;;;;;27.23;15.97;;;;;;;11.04;78.01;98930.72;4215156;28;21038;-70
2023/04/25 00:28:51;;;;;;;23.67;15.23;;;;;;;11.12;77.67;98923.50;4223898;28;20250;-71
2023/04/25 00:31:18;;;;;;;27.07;16.00;;;;;;;11.07;77.87;98927.59;4224857;28;20230;-69
2023/04/25 00:33:44;;;;;;;28.67;16.90;;;;;;;11.12;78.01;98927.03;4214900;28;22100;-67
2023/04/25 00:36:11;;;;;;;29.77;16.73;;;;;;;11.07;78.26;98919.47;4210202;28;20261;-67
2023/04/25 00:38:38;;;;;;;27.47;16.07;;;;;;;11.08;78.17;98918.47;4223987;28;20250;-69
2023/04/25 00:41:06;;;;;;;26.30;16.70;;;;;;;11.00;79.00;98917.72;4222597;28;20638;-69
2023/04/25 00:43:32;;;;;;;29.10;16.97;;;;;;;10.93;79.54;98929.31;4223715;28;22558;-68
2023/04/25 00:46:00;;;;;;;28.27;16.57;;;;;;;10.99;79.34;98922.28;4208730;28;20239;-74
2023/04/25 00:48:27;;;;;;;23.73;16.57;;;;;;;11.03;79.37;98928.16;4215616;28;21717;-74
2023/04/25 00:50:56;;;;;;;26.17;17.50;;;;;;;11.00;79.84;98920.44;4232093;28;20281;-76
2023/04/25 00:53:23;;;;;;;28.77;17.60;;;;;;;10.97;80.03;98931.63;4211628;28;20242;-75
2023/04/25 00:55:53;;;;;;;28.70;17.83;;;;;;;10.96;80.31;98929.94;4218880;28;20235;-76
2023/04/25 00:58:20;;;;;;;28.33;18.13;;;;;;;11.01;80.11;98935.66;4222396;28;20851;-75
2023/04/25 01:00:48;;;;;;;34.10;18.60;;;;;;;10.97;80.45;98929.78;4221120;28;20354;-76
2023/04/25 01:03:21;;;;;;;30.97;19.27;;;;;;;10.89;81.45;98921.75;4220551;28;20239;-76
2023/04/25 01:05:49;;;;;;;33.33;19.03;;;;;;;10.86;81.79;98916.69;4212800;28;20227;-76
2023/04/25 01:08:15;;;;;;;28.33;19.53;;;;;;;10.80;82.47;98922.84;4208434;28;20613;-78
2023/04/25 01:10:42;;;;;;;35.03;20.03;;;;;;;10.73;83.04;98920.91;4226900;28;22242;-76
2023/04/25 01:13:09;;;;;;;37.33;19.97;;;;;;;10.70;83.60;98928.56;4228415;28;20234;-77
2023/04/25 01:15:36;;;;;;;32.30;19.87;;;;;;;10.69;83.82;98922.28;4226189;28;20277;-75
2023/04/25 01:18:05;;;;;;;31.23;20.43;;;;;;;10.72;84.12;98926.50;4226396;28;20227;-76
2023/04/25 01:20:32;;;;;;;34.37;20.87;;;;;;;10.72;84.34;98929.22;4224731;28;20294;-75
2023/04/25 01:22:59;;;;;;;31.50;19.70;;;;;;;10.73;84.44;98926.31;4217982;28;20569;-75
2023/04/25 01:25:26;;;;;;;33.20;20.13;;;;;;;10.70;84.53;98923.97;4208752;28;22098;-75
2023/04/25 01:27:53;;;;;;;31.37;19.40;;;;;;;10.58;85.17;98926.28;4231007;28;20235;-75
2023/04/25 01:30:19;;;;;;;32.40;20.20;;;;;;;10.55;85.30;98926.69;4212646;28;20227;-74
2023/04/25 01:32:47;;;;;;;31.23;19.10;;;;;;;10.50;85.95;98926.38;4228553;28;21009;-76
2023/04/25 01:35:14;;;;;;;32.90;20.13;;;;;;;10.46;85.72;98917.78;4224762;28;20235;-74
2023/04/25 01:37:42;;;;;;;32.60;19.07;;;;;;;10.54;85.45;98918.72;4224864;28;20294;-76
2023/04/25 01:40:10;;;;;;;34.43;19.50;;;;;;;10.52;85.77;98918.91;4218346;28;23582;-74
2023/04/25 01:42:39;;;;;;;33.37;20.20;;;;;;;10.48;85.77;98916.75;4222103;28;25185;-79
2023/04/25 01:45:07;;;;;;;28.97;19.73;;;;;;;10.44;86.22;98916.28;4229277;28;22608;-77
2023/04/25 01:47:37;;;;;;;33.33;19.17;;;;;;;10.43;86.39;98914.59;4226507;28;21201;-75
2023/04/25 01:50:04;;;;;;;33.13;18.77;;;;;;;10.42;86.42;98921.91;4210006;28;20277;-76
2023/04/25 01:52:31;;;;;;;32.50;20.27;;;;;;;10.42;86.45;98912.94;4213041;28;21131;-77
2023/04/25 01:54:59;;;;;;;31.70;20.00;;;;;;;10.42;86.70;98921.06;4230347;28;20704;-76
2023/04/25 01:57:26;;;;;;;35.07;20.17;;;;;;;10.36;86.82;98913.63;4222393;28;22130;-76
2023/04/25 01:59:59;;;;;;;32.20;20.60;;;;;;;10.30;87.27;98918.75;4223715;28;21157;-77
2023/04/25 02:02:26;;;;;;;32.90;19.23;;;;;;;10.30;87.25;98916.06;4232584;28;23417;-77
2023/04/25 02:04:54;;;;;;;32.30;19.47;;;;;;;10.24;87.50;98908.69;4205236;28;20303;-74
2023/04/25 02:07:20;;;;;;;32.70;20.23;;;;;;;10.19;87.76;98900.28;4198968;28;20303;-76
2023/04/25 02:09:47;;;;;;;32.40;20.10;;;;;;;10.28;87.50;98915.38;4227924;28;20242;-74
2023/04/25 02:12:13;;;;;;;33.87;19.97;;;;;;;10.30;87.61;98915.22;4210628;28;20228;-75
2023/04/25 02:14:40;;;;;;;36.10;19.97;;;;;;;10.26;87.93;98920.16;4217908;28;20237;-76
2023/04/25 02:17:06;;;;;;;29.63;19.03;;;;;;;10.25;88.20;98914.91;4212577;28;20544;-79
2023/04/25 02:19:33;;;;;;;37.00;20.37;;;;;;;10.23;88.01;98909.69;4211579;28;20395;-79
2023/04/25 02:22:00;;;;;;;34.90;19.20;;;;;;;10.23;87.95;98908.88;4222013;28;20227;-77
2023/04/25 02:24:27;;;;;;;31.73;18.50;;;;;;;10.30;87.96;98917.94;4224908;28;20241;-74
2023/04/25 02:26:55;;;;;;;34.13;19.30;;;;;;;10.25;88.19;98906.81;4218126;28;20615;-77
2023/04/25 02:29:22;;;;;;;29.80;17.27;;;;;;;10.26;87.92;98903.94;4220072;28;20239;-74
2023/04/25 02:31:49;;;;;;;30.70;17.33;;;;;;;10.23;87.61;98904.28;4208686;28;21861;-75
2023/04/25 02:34:16;;;;;;;34.50;17.50;;;;;;;10.28;87.89;98901.88;4227062;28;21260;-72
2023/04/25 02:36:42;;;;;;;28.73;16.53;;;;;;;10.29;87.78;98903.56;4223868;28;20419;-75
2023/04/25 02:39:10;;;;;;;28.23;17.17;;;;;;;10.19;88.15;98902.13;4228535;28;20312;-76
2023/04/25 02:41:37;;;;;;;33.53;18.00;;;;;;;10.20;88.16;98899.22;4214965;28;21681;-74
2023/04/25 02:44:03;;;;;;;32.50;16.27;;;;;;;10.12;88.18;98888.53;4228792;28;20231;-78
2023/04/25 02:46:30;;;;;;;24.50;15.47;;;;;;;10.09;88.34;98903.22;4220778;28;20317;-74
2023/04/25 02:49:06;;;;;;;31.63;16.80;;;;;;;10.05;88.59;98903.75;4227516;28;21116;-77
2023/04/25 02:51:32;;;;;;;28.73;16.33;;;;;;;10.00;88.72;98904.34;4225792;28;20236;-76
2023/04/25 02:53:59;;;;;;;28.23;15.83;;;;;;;10.04;88.82;98904.81;4228924;28;23390;-76
2023/04/25 02:56:26;;;;;;;25.93;15.47;;;;;;;9.96;88.79;98911.97;4224964;28;20235;-75
2023/04/25 02:58:53;;;;;;;30.23;16.33;;;;;;;9.90;88.87;98901.84;4216605;28;20754;-75
2023/04/25 03:01:20;;;;;;;29.53;17.07;;;;;;;9.92;88.91;98904.41;4231755;28;21752;-77
2023/04/25 03:03:46;;;;;;;29.23;15.77;;;;;;;9.93;89.09;98906.09;4211159;28;20250;-75
2023/04/25 03:06:13;;;;;;;29.30;15.73;;;;;;;10.04;88.42;98905.63;4225972;28;20660;-76
2023/04/25 03:08:40;;;;;;;28.73;15.20;;;;;;;10.02;88.70;98902.25;4225617;28;20246;-75
2023/04/25 03:11:07;;;;;;;30.30;15.17;;;;;;;9.99;88.82;98898.06;4222157;28;20237;-77
2023/04/25 03:13:33;;;;;;;27.70;15.33;;;;;;;10.14;88.37;98900.81;4215622;28;20234;-73
2023/04/25 03:16:00;;;;;;;24.73;14.97;;;;;;;10.15;88.07;98902.50;4207239;28;20605;-76
2023/04/25 03:18:27;;;;;;;28.90;13.87;;;;;;;10.17;87.97;98888.78;4224702;28;21123;-75
2023/04/25 03:20:54;;;;;;;27.03;14.27;;;;;;;10.17;87.67;98899.63;4221955;28;20611;-76
2023/04/25 03:23:21;;;;;;;25.80;14.63;;;;;;;10.02;88.31;98901.44;4230703;28;20311;-75
2023/04/25 03:25:47;;;;;;;22.40;14.43;;;;;;;9.95;88.65;98909.41;4230431;28;20302;-77
2023/04/25 03:28:14;;;;;;;30.37;15.97;;;;;;;9.94;88.67;98907.72;4225639;28;21440;-74
2023/04/25 03:30:40;;;;;;;30.13;15.97;;;;;;;9.96;88.67;98906.56;4225742;28;20814;-73
2023/04/25 03:33:07;;;;;;;23.57;14.43;;;;;;;10.03;88.50;98906.66;4226313;28;20300;-75
2023/04/25 03:35:34;;;;;;;29.00;15.50;;;;;;;10.03;88.32;98909.34;4223099;28;20426;-74
2023/04/25 03:38:00;;;;;;;25.07;15.10;;;;;;;10.07;88.30;98907.13;4232935;28;20441;-77
2023/04/25 03:40:27;;;;;;;25.37;14.73;;;;;;;10.07;88.14;98908.00;4200121;28;20254;-76
2023/04/25 03:42:53;;;;;;;25.40;14.63;;;;;;;10.13;88.35;98915.38;4229831;28;20359;-76
2023/04/25 03:45:20;;;;;;;23.70;14.27;;;;;;;10.13;87.93;98909.97;4218908;28;20242;-75
2023/04/25 03:47:46;;;;;;;22.83;14.40;;;;;;;10.09;88.46;98918.63;4225365;28;21943;-76
2023/04/25 03:50:13;;;;;;;29.83;14.37;;;;;;;10.09;88.49;98911.31;4229069;28;21650;-74
2023/04/25 03:52:40;;;;;;;25.13;14.20;;;;;;;10.14;88.22;98919.75;4225745;28;20227;-74
2023/04/25 03:55:07;;;;;;;23.37;13.70;;;;;;;10.19;88.48;98921.91;4197006;28;20505;-75
2023/04/25 03:57:33;;;;;;;26.23;13.57;;;;;;;10.25;87.64;98921.19;4234947;28;20857;-77
2023/04/25 04:00:00;;;;;;;22.57;13.40;;;;;;;10.30;87.77;98926.88;4217918;28;23265;-78
2023/04/25 04:02:26;;;;;;;21.50;14.20;;;;;;;10.28;87.91;98920.78;4224147;28;20448;-75
2023/04/25 04:04:53;;;;;;;23.00;12.57;;;;;;;10.42;87.40;98926.47;4230946;28;21438;-75
2023/04/25 04:07:20;;;;;;;19.77;11.90;;;;;;;10.37;87.54;98926.16;4221790;28;20603;-74
2023/04/25 04:09:47;;;;;;;20.63;12.30;;;;;;;10.45;88.26;98940.47;4221665;28;20724;-75
2023/04/25 04:12:13;;;;;;;19.67;11.53;;;;;;;10.48;87.59;98935.69;4228226;28;21792;-77
2023/04/25 04:14:40;;;;;;;20.90;11.63;;;;;;;10.41;87.81;98933.72;4225021;28;20228;-73
2023/04/25 04:17:06;;;;;;;16.47;10.83;;;;;;;10.40;87.97;98937.47;4221314;28;20541;-75
2023/04/25 04:19:33;;;;;;;18.37;11.47;;;;;;;10.36;87.89;98937.97;4232821;28;20845;-76
2023/04/25 04:22:00;;;;;;;18.57;11.27;;;;;;;10.39;87.43;98946.59;4211951;28;21523;-76
2023/04/25 04:24:26;;;;;;;24.77;11.60;;;;;;;10.50;87.98;98944.47;4210034;28;20595;-75
2023/04/25 04:26:53;;;;;;;16.77;10.67;;;;;;;10.44;87.77;98944.19;4222047;28;20265;-75
2023/04/25 04:29:22;;;;;;;16.33;11.00;;;;;;;10.31;88.28;98946.63;4208108;28;20243;-75
2023/04/25 04:31:50;;;;;;;18.57;11.63;;;;;;;10.34;88.35;98956.28;4234610;28;20231;-74
2023/04/25 04:34:18;;;;;;;24.03;13.43;;;;;;;10.49;88.20;98948.22;4213558;28;20560;-75
2023/04/25 04:36:48;;;;;;;17.93;11.03;;;;;;;10.53;87.88;98942.25;4240941;28;21404;-76
2023/04/25 04:39:15;;;;;;;19.60;11.90;;;;;;;10.39;88.49;98945.75;4219459;28;21450;-74
2023/04/25 04:41:42;;;;;;;19.67;12.73;;;;;;;10.55;87.95;98939.34;4226976;28;20525;-74
2023/04/25 04:44:13;;;;;;;20.73;11.80;;;;;;;10.41;88.76;98944.56;4255264;28;20508;-72
2023/04/25 04:46:41;;;;;;;17.67;11.33;;;;;;;10.56;88.01;98941.03;4245886;28;20332;-71
2023/04/25 04:49:10;;;;;;;21.37;12.00;;;;;;;10.67;87.63;98945.16;4203519;28;22370;-71
2023/04/25 04:51:37;;;;;;;17.70;11.87;;;;;;;10.60;87.87;98948.59;4245424;28;20236;-70
2023/04/25 04:54:04;;;;;;;20.20;11.80;;;;;;;10.46;88.36;98949.41;4233553;28;20285;-69
2023/04/25 04:56:31;;;;;;;27.00;13.00;;;;;;;10.30;89.45;98948.50;4230006;28;21194;-71
2023/04/25 04:58:58;;;;;;;20.13;13.87;;;;;;;10.28;89.67;98945.13;4237939;28;22971;-68
2023/04/25 05:01:25;;;;;;;24.50;13.83;;;;;;;10.26;89.53;98954.47;4230426;28;20314;-70
2023/04/25 05:03:52;;;;;;;24.60;13.30;;;;;;;10.24;89.31;98956.50;4195374;28;21317;-73
2023/04/25 05:06:20;;;;;;;21.93;14.13;;;;;;;10.19;89.77;98957.06;4225014;28;21007;-70
2023/04/25 05:08:47;;;;;;;22.87;14.27;;;;;;;10.23;89.75;98957.53;4230400;28;21314;-73
2023/04/25 05:11:13;;;;;;;24.20;13.83;;;;;;;10.29;89.28;98944.13;4230160;28;22169;-71
2023/04/25 05:13:40;;;;;;;22.50;13.83;;;;;;;10.28;89.35;98947.84;4222691;28;21546;-71
2023/04/25 05:16:06;;;;;;;21.43;14.03;;;;;;;10.26;89.04;98949.06;4226052;28;20239;-72
2023/04/25 05:18:33;;;;;;;20.13;13.53;;;;;;;10.41;88.69;98952.66;4230709;28;22716;-70
2023/04/25 05:20:59;;;;;;;23.20;13.20;;;;;;;10.23;89.31;98963.78;4202329;28;20236;-72
2023/04/25 05:23:27;;;;;;;18.13;12.83;;;;;;;10.28;88.32;98957.84;4215879;28;21461;-75
2023/04/25 05:25:54;;;;;;;17.40;12.57;;;;;;;10.29;89.02;98954.09;4213249;28;20887;-75
2023/04/25 05:28:21;;;;;;;20.43;13.30;;;;;;;10.23;89.28;98963.78;4224110;28;22375;-72
2023/04/25 05:30:48;;;;;;;18.60;12.17;;;;;;;10.23;89.20;98969.19;4224045;28;21245;-72
2023/04/25 05:33:15;;;;;;;17.60;11.50;;;;;;;10.28;88.75;98965.94;4222000;28;21977;-72
2023/04/25 05:35:41;;;;;;;17.80;11.60;;;;;;;10.21;88.44;98975.81;4224675;28;20481;-73
2023/04/25 05:38:08;;;;;;;19.20;12.20;;;;;;;10.11;89.24;98976.06;4221539;28;20335;-72
2023/04/25 05:40:35;;;;;;;20.63;12.90;;;;;;;10.12;88.90;98970.47;4230818;28;20229;-70
2023/04/25 05:43:02;;;;;;;16.60;11.97;;;;;;;10.15;88.35;98972.81;4227731;28;20304;-72
2023/04/25 05:45:28;;;;;;;17.27;12.47;;;;;;;10.18;88.61;98966.19;4226596;28;21148;-72
2023/04/25 05:47:55;;;;;;;18.83;13.00;;;;;;;10.14;88.53;98967.56;4202597;28;20247;-70
2023/04/25 05:50:22;;;;;;;18.53;12.97;;;;;;;10.23;87.93;98971.06;4230656;28;20260;-71
2023/04/25 05:52:48;;;;;;;18.17;12.50;;;;;;;10.18;87.97;98968.03;4226782;28;20239;-70
2023/04/25 05:55:15;;;;;;;21.20;13.40;;;;;;;10.20;87.83;98972.25;4213837;28;20292;-73
2023/04/25 05:57:44;;;;;;;17.97;12.50;;;;;;;10.26;87.24;98973.41;4224726;28;20348;-70
2023/04/25 06:00:13;;;;;;;17.50;12.23;;;;;;;10.08;88.05;98974.53;4228180;28;20235;-71
2023/04/25 06:02:39;;;;;;;19.23;12.53;;;;;;;10.28;86.99;98982.16;4224143;28;20239;-72
2023/04/25 06:05:07;;;;;;;18.60;12.50;;;;;;;10.23;87.34;98981.88;4224624;28;20861;-72
2023/04/25 06:07:34;;;;;;;21.87;13.60;;;;;;;10.14;87.74;98983.78;4225262;28;20275;-73
2023/04/25 06:10:00;;;;;;;18.63;12.67;;;;;;;10.28;86.64;98980.28;4225845;28;25839;-70
2023/04/25 06:12:27;;;;;;;18.37;13.20;;;;;;;10.06;87.77;98982.00;4220497;28;22195;-71
2023/04/25 06:14:54;;;;;;;18.13;12.57;;;;;;;10.15;87.58;98986.34;4226283;28;20337;-70
2023/04/25 06:17:20;;;;;;;18.67;13.30;;;;;;;10.19;87.43;98981.41;4227757;28;20433;-70
2023/04/25 06:19:47;;;;;;;19.00;12.70;;;;;;;10.18;87.38;98989.69;4223359;28;21342;-71
2023/04/25 06:22:14;;;;;;;20.87;13.60;;;;;;;10.16;88.05;99003.38;4232034;28;20644;-71
2023/04/25 06:24:40;;;;;;;17.20;12.17;;;;;;;10.15;88.21;99004.41;4227685;28;22641;-70
2023/04/25 06:27:07;;;;;;;19.00;12.93;;;;;;;10.08;88.73;99014.25;4226533;28;22245;-70
2023/04/25 06:29:33;;;;;;;18.93;12.03;;;;;;;10.05;88.55;99014.59;4234563;28;20274;-73
2023/04/25 06:32:00;;;;;;;20.37;11.80;;;;;;;9.86;89.80;99026.75;4233954;28;20240;-72
2023/04/25 06:34:27;;;;;;;17.60;11.70;;;;;;;9.68;89.77;99028.66;4202410;28;20240;-71
2023/04/25 06:36:53;;;;;;;18.93;11.47;;;;;;;9.57;89.82;99028.22;4241707;28;20235;-74
2023/04/25 06:39:22;;;;;;;17.77;11.97;;;;;;;9.53;90.23;99038.53;4228601;28;20235;-70
2023/04/25 06:41:49;;;;;;;17.23;11.53;;;;;;;9.36;89.47;99043.16;4220268;28;21932;-70
2023/04/25 06:44:15;;;;;;;17.83;11.93;;;;;;;9.31;89.28;99040.16;4222987;28;23949;-71
2023/04/25 06:46:42;;;;;;;19.47;10.70;;;;;;;9.31;89.46;99038.28;4225963;28;20307;-69
2023/04/25 06:49:10;;;;;;;18.63;11.10;;;;;;;9.42;89.23;99033.53;4221020;28;21234;-71
2023/04/25 06:51:36;;;;;;;21.20;11.80;;;;;;;9.34;89.74;99019.03;4228232;28;20251;-72
2023/04/25 06:54:04;;;;;;;17.30;11.17;;;;;;;9.52;89.29;99015.22;4221775;28;25493;-69
2023/04/25 06:56:31;;;;;;;19.07;11.83;;;;;;;9.49;89.48;99012.91;4233331;28;20485;-70
2023/04/25 06:58:58;;;;;;;22.70;11.87;;;;;;;9.50;89.87;99022.69;4230726;28;20363;-71
2023/04/25 07:01:25;;;;;;;20.03;11.73;;;;;;;9.52;90.05;99029.59;4228577;28;20235;-70
2023/04/25 07:03:51;;;;;;;19.10;11.67;;;;;;;9.73;89.69;99027.31;4217360;28;20256;-70
2023/04/25 07:06:18;;;;;;;18.30;12.67;;;;;;;9.81;88.81;99029.97;4237269;28;21495;-71
2023/04/25 07:08:45;;;;;;;22.67;12.50;;;;;;;10.18;88.81;99017.59;4235641;28;21121;-71
2023/04/25 07:11:11;;;;;;;19.67;11.53;;;;;;;10.37;85.67;99013.59;4217939;28;20232;-72
2023/04/25 07:13:38;;;;;;;15.20;10.87;;;;;;;10.42;87.11;99011.16;4226327;28;22133;-71
2023/04/25 07:16:05;;;;;;;15.57;10.70;;;;;;;10.50;86.19;99012.94;4226081;28;20362;-71
2023/04/25 07:18:32;;;;;;;17.40;10.03;;;;;;;10.53;86.20;99014.47;4225804;28;21620;-70
2023/04/25 07:20:58;;;;;;;13.83;8.97;;;;;;;10.60;84.68;99018.13;4194421;28;20565;-71
2023/04/25 07:23:25;;;;;;;15.23;9.40;;;;;;;10.14;86.96;99011.69;4227076;28;20289;-70
2023/04/25 07:25:52;;;;;;;14.57;9.40;;;;;;;10.29;85.04;99022.56;4230656;28;20242;-69
2023/04/25 07:28:19;;;;;;;13.07;9.23;;;;;;;10.16;84.70;99030.44;4221379;28;20239;-71
2023/04/25 07:30:45;;;;;;;12.50;8.73;;;;;;;10.14;84.95;99025.22;4225815;28;20302;-70
2023/04/25 07:33:12;;;;;;;14.60;9.10;;;;;;;10.44;84.80;99022.66;4228269;28;23478;-70
2023/04/25 07:35:39;;;;;;;13.23;9.20;;;;;;;10.83;83.87;99017.25;4237970;28;25866;-69
2023/04/25 07:38:06;;;;;;;12.47;8.67;;;;;;;11.05;82.71;99018.19;4243178;28;20245;-69
2023/04/25 07:40:33;;;;;;;16.30;7.90;;;;;;;11.10;81.97;99022.03;4232121;28;20765;-71
2023/04/25 07:43:00;;;;;;;12.87;8.10;;;;;;;11.29;81.78;99027.91;4231318;28;22949;-72
2023/04/25 07:45:27;;;;;;;12.63;8.07;;;;;;;11.05;81.27;99032.59;4239807;28;21299;-70
2023/04/25 07:47:53;;;;;;;13.13;7.73;;;;;;;10.61;82.35;99030.63;4218081;28;20418;-73
2023/04/25 07:50:20;;;;;;;14.57;7.80;;;;;;;10.39;82.42;99026.91;4241467;28;22504;-71
2023/04/25 07:52:46;;;;;;;11.77;7.97;;;;;;;10.46;81.61;99034.13;4225835;28;20611;-71
2023/04/25 07:55:13;;;;;;;14.13;7.30;;;;;;;10.65;82.50;99037.34;4209242;28;20604;-70
2023/04/25 07:57:40;;;;;;;11.07;7.60;;;;;;;10.53;82.64;99038.81;4235075;28;20654;-70
2023/04/25 08:00:09;;;;;;;10.60;7.90;;;;;;;10.58;82.52;99037.22;4228639;28;20232;-70
2023/04/25 08:02:37;;;;;;;10.63;7.73;;;;;;;10.41;83.46;99041.13;4225901;28;20227;-69
2023/04/25 08:05:04;;;;;;;10.03;7.47;;;;;;;10.57;82.68;99034.72;4232054;28;20581;-71
2023/04/25 08:07:32;;;;;;;10.97;7.50;;;;;;;10.36;83.97;99035.34;4228888;28;20423;-70
2023/04/25 08:09:58;;;;;;;11.27;6.40;;;;;;;9.95;84.10;99028.34;4226901;28;20231;-72
2023/04/25 08:12:25;;;;;;;9.10;6.60;;;;;;;9.85;85.55;99033.16;4227856;28;20301;-68
2023/04/25 08:14:53;;;;;;;8.87;5.90;;;;;;;9.92;84.34;99044.94;4224284;28;20235;-70
2023/04/25 08:17:19;;;;;;;9.67;6.80;;;;;;;9.48;86.07;99039.06;4213675;28;22821;-71
2023/04/25 08:19:46;;;;;;;12.10;6.77;;;;;;;9.47;86.59;99039.25;4238018;28;22798;-73
2023/04/25 08:22:13;;;;;;;10.43;6.17;;;;;;;9.65;86.07;99050.66;4233606;28;20651;-71
2023/04/25 08:24:40;;;;;;;10.60;6.70;;;;;;;9.42;87.56;99047.88;4203895;28;21586;-70
2023/04/25 08:27:07;;;;;;;12.93;7.30;;;;;;;9.62;85.76;99044.75;4219552;28;21730;-71
2023/04/25 08:29:34;;;;;;;9.53;6.77;;;;;;;9.40;86.70;99054.47;4236644;28;20287;-71
2023/04/25 08:32:01;;;;;;;9.80;6.90;;;;;;;9.48;86.16;99055.25;4203738;28;21756;-71
2023/04/25 08:34:27;;;;;;;10.03;6.63;;;;;;;9.65;85.12;99052.50;4234142;28;21581;-69
2023/04/25 08:36:54;;;;;;;10.40;6.73;;;;;;;9.64;85.04;99048.97;4232509;28;20238;-70
2023/04/25 08:39:21;;;;;;;9.27;6.20;;;;;;;9.69;83.98;99059.25;4212455;28;20231;-70
2023/04/25 08:41:48;;;;;;;8.60;6.53;;;;;;;9.59;84.10;99058.63;4232225;28;20355;-69
2023/04/25 08:44:14;;;;;;;9.80;6.47;;;;;;;9.47;84.70;99067.09;4223634;28;20292;-70
2023/04/25 08:46:41;;;;;;;10.53;6.00;;;;;;;9.44;85.66;99066.63;4227831;28;20236;-70
2023/04/25 08:49:11;;;;;;;9.33;5.60;;;;;;;9.71;83.96;99075.28;4205970;28;20244;-71
2023/04/25 08:51:46;;;;;;;7.87;5.40;;;;;;;9.59;83.91;99078.34;4223304;28;20574;-68
2023/04/25 08:54:14;;;;;;;7.33;5.40;;;;;;;9.55;85.04;99084.31;4226604;28;23036;-69
2023/04/25 08:57:03;;;;;;;9.53;5.83;;;;;;;9.56;85.02;99081.41;4231523;28;22662;-69
2023/04/25 08:59:32;;;;;;;9.60;7.13;;;;;;;9.43;83.25;99089.25;4231978;28;21137;-70
2023/04/25 09:02:00;;;;;;;10.40;7.77;;;;;;;9.45;83.17;99090.75;4221127;28;20314;-71
2023/04/25 09:04:27;;;;;;;13.63;9.13;;;;;;;9.51;82.43;99092.75;4219771;28;20320;-69
2023/04/25 09:06:53;;;;;;;13.17;9.67;;;;;;;9.24;84.11;99104.78;4224630;28;21687;-68
2023/04/25 09:09:21;;;;;;;15.10;10.17;;;;;;;9.55;83.21;99100.50;4243928;28;20609;-71
2023/04/25 09:11:47;;;;;;;15.20;10.33;;;;;;;9.85;82.65;99100.75;4234601;28;20235;-70
2023/04/25 09:14:20;;;;;;;15.07;11.40;;;;;;;9.68;82.39;99100.81;4222023;28;20961;-69
2023/04/25 09:16:56;;;;;;;15.50;11.17;;;;;;;10.12;81.80;99102.13;4223973;28;20470;-70
2023/04/25 09:19:35;;;;;;;15.00;10.87;;;;;;;10.08;81.15;99108.91;4215289;28;20227;-71
2023/04/25 09:22:08;;;;;;;16.13;11.17;;;;;;;10.14;80.01;99100.94;4227317;28;20239;-69
2023/04/25 09:24:38;;;;;;;19.17;12.73;;;;;;;9.91;80.46;99100.03;4230409;28;20231;-70
2023/04/25 09:27:06;;;;;;;15.03;10.80;;;;;;;10.04;79.80;99102.16;4213362;28;20801;-70
2023/04/25 09:29:36;;;;;;;14.23;11.10;;;;;;;9.98;80.11;99099.13;4219881;28;20307;-70
2023/04/25 09:32:15;;;;;;;17.27;11.77;;;;;;;10.07;79.59;99104.50;4213860;28;20317;-69
2023/04/25 09:34:44;;;;;;;15.90;11.83;;;;;;;9.87;80.40;99102.25;4232692;28;21359;-68
2023/04/25 09:37:11;;;;;;;19.33;13.13;;;;;;;9.68;81.28;99117.00;4210795;28;20863;-72
2023/04/25 09:39:38;;;;;;;21.87;13.37;;;;;;;9.59;82.18;99118.06;4226143;28;20231;-71
2023/04/25 09:42:05;;;;;;;17.80;12.70;;;;;;;9.78;81.32;99108.69;4233786;28;21480;-73
2023/04/25 09:44:32;;;;;;;18.77;13.77;;;;;;;9.84;80.45;99113.41;4227983;28;21257;-73
2023/04/25 09:46:59;;;;;;;17.93;12.57;;;;;;;9.73;81.04;99121.91;4220404;28;22893;-71
2023/04/25 09:49:27;;;;;;;20.10;14.23;;;;;;;9.60;81.83;99120.56;4209724;28;20349;-71
2023/04/25 09:51:58;;;;;;;25.23;15.23;;;;;;;9.82;81.91;99120.81;4207454;28;20669;-71
2023/04/25 09:54:25;;;;;;;19.80;13.93;;;;;;;9.82;80.62;99129.78;4212087;28;20230;-74
2023/04/25 09:56:53;;;;;;;16.93;13.43;;;;;;;9.90;81.27;99137.00;4210505;28;20378;-70
2023/04/25 09:59:21;;;;;;;17.17;12.90;;;;;;;9.62;82.56;99128.53;4231216;28;20231;-74
2023/04/25 10:01:50;;;;;;;23.07;13.80;;;;;;;9.77;82.07;99137.59;4221278;28;20973;-71
2023/04/25 10:04:26;;;;;;;18.47;13.53;;;;;;;9.64;83.23;99138.13;4216261;28;20641;-71
2023/04/25 10:06:54;;;;;;;20.83;14.87;;;;;;;9.46;84.02;99127.56;4207357;28;20239;-70
2023/04/25 10:09:21;;;;;;;20.03;14.30;;;;;;;9.65;82.79;99142.53;4227139;28;20702;-73
2023/04/25 10:11:48;;;;;;;17.53;13.47;;;;;;;9.57;82.32;99144.38;4224230;28;20251;-73
2023/04/25 10:14:16;;;;;;;20.63;13.90;;;;;;;9.63;83.17;99136.44;4230336;28;20326;-72
2023/04/25 10:16:42;;;;;;;22.30;13.90;;;;;;;9.45;82.88;99136.66;4216156;28;20251;-73
2023/04/25 10:19:14;;;;;;;19.23;13.93;;;;;;;9.67;82.93;99134.25;4224816;28;20236;-74
2023/04/25 10:21:47;;;;;;;16.67;12.47;;;;;;;9.87;81.50;99133.81;4246535;28;21481;-72
2023/04/25 10:24:15;;;;;;;15.90;12.67;;;;;;;9.91;81.87;99138.69;4250228;28;20580;-75
2023/04/25 10:26:42;;;;;;;18.47;13.80;;;;;;;9.75;83.71;99136.06;4228464;28;20240;-75
2023/04/25 10:29:10;;;;;;;21.40;13.73;;;;;;;9.86;83.18;99132.16;4204020;28;22830;-73
2023/04/25 10:31:45;;;;;;;20.00;14.57;;;;;;;9.76;84.14;99140.44;4214724;28;20307;-74
2023/04/25 10:34:12;;;;;;;19.03;12.53;;;;;;;9.79;82.43;99134.72;4224529;28;20233;-69
2023/04/25 10:36:39;;;;;;;16.87;12.00;;;;;;;9.66;82.66;99141.53;4228219;28;20605;-70
2023/04/25 10:39:07;;;;;;;15.03;11.80;;;;;;;9.75;82.56;99145.03;4228821;28;20519;-71
2023/04/25 10:41:48;;;;;;;16.10;12.20;;;;;;;9.83;82.26;99136.03;4196158;28;21719;-76
2023/04/25 10:44:15;;;;;;;19.10;12.70;;;;;;;9.56;83.87;99135.44;4212874;28;20516;-74
2023/04/25 10:46:44;;;;;;;20.37;13.33;;;;;;;9.60;84.08;99136.78;4226111;28;20409;-78
2023/04/25 10:49:10;;;;;;;16.63;13.13;;;;;;;9.75;83.49;99133.34;4216855;28;20660;-69
2023/04/25 10:51:41;;;;;;;16.67;12.87;;;;;;;9.86;82.96;99134.88;4218575;28;20246;-68
2023/04/25 10:54:22;;;;;;;18.30;13.13;;;;;;;9.89;82.96;99135.34;4233734;28;20410;-70
2023/04/25 10:56:50;;;;;;;17.07;12.83;;;;;;;9.96;82.18;99136.34;4218608;28;20732;-70
2023/04/25 10:59:18;;;;;;;18.80;14.00;;;;;;;9.72;83.18;99139.13;4217571;28;20548;-71
2023/04/25 11:01:45;;;;;;;20.27;14.13;;;;;;;9.87;82.89;99136.53;4223191;28;23546;-69
2023/04/25 11:04:29;;;;;;;19.57;13.50;;;;;;;9.64;82.55;99142.69;4242026;28;20227;-68
2023/04/25 11:08:04;;;;;;;19.60;13.27;;;;;;;9.76;80.75;99132.34;4217252;28;20326;-73
2023/04/25 11:10:37;;;;;;;17.60;13.13;;;;;;;9.97;79.83;99145.28;4178606;28;20293;-71
2023/04/25 11:13:04;;;;;;;17.03;12.73;;;;;;;9.94;80.33;99145.63;4166284;28;20240;-69
2023/04/25 11:15:31;;;;;;;17.17;13.23;;;;;;;10.32;79.34;99137.66;4208840;28;20791;-71
2023/04/25 11:17:58;;;;;;;17.80;13.50;;;;;;;10.22;79.01;99142.47;4218473;28;20976;-71
2023/04/25 11:20:26;;;;;;;15.13;11.97;;;;;;;10.41;77.61;99138.50;4247276;28;21611;-71
2023/04/25 11:22:52;;;;;;;16.73;12.60;;;;;;;10.18;79.01;99141.13;4239940;28;20512;-74
2023/04/25 11:25:19;;;;;;;18.17;12.37;;;;;;;9.98;79.27;99136.97;4224945;28;22158;-70